createdAt,value
2023-04-21T00:02:08.211Z,95148.16
2023-04-21T00:05:03.334Z,95150.75
2023-04-21T00:07:50.140Z,95148.19
2023-04-21T00:10:23.285Z,95138.88
2023-04-21T00:13:10.139Z,95138.00
2023-04-21T00:15:43.288Z,95143.97
2023-04-21T00:18:30.150Z,95138.88
2023-04-21T00:21:04.287Z,95138.03
2023-04-21T00:23:51.138Z,95135.47
2023-04-21T00:26:24.511Z,95144.84
2023-04-21T00:29:11.170Z,95138.91
2023-04-21T00:31:44.308Z,95143.13
2023-04-21T00:34:31.187Z,95136.34
2023-04-21T00:37:11.175Z,95135.47
2023-04-21T00:39:58.177Z,95144.00
2023-04-21T00:42:39.170Z,95138.91
2023-04-21T00:45:26.197Z,95129.53
2023-04-21T00:47:59.636Z,95132.09
2023-04-21T00:50:46.154Z,95137.19
2023-04-21T00:53:28.174Z,95129.56
2023-04-21T00:56:15.176Z,95127.88
2023-04-21T00:58:49.971Z,95121.94
2023-04-21T01:01:38.159Z,95122.81
2023-04-21T01:04:19.205Z,95118.56
2023-04-21T01:07:06.144Z,95119.47
2023-04-21T01:09:47.177Z,95124.59
2023-04-21T01:12:42.163Z,95122.88
2023-04-21T01:15:29.179Z,95110.19
2023-04-21T01:18:04.639Z,95110.19
2023-04-21T01:20:51.172Z,95110.22
2023-04-21T01:23:24.313Z,95109.38
2023-04-21T01:26:11.174Z,95108.53
2023-04-21T01:28:44.345Z,95112.78
2023-04-21T01:31:31.228Z,95110.25
2023-04-21T01:34:06.337Z,95116.22
2023-04-21T01:36:55.920Z,95111.97
2023-04-21T01:39:29.301Z,95120.47
2023-04-21T01:42:17.183Z,95112.81
2023-04-21T01:44:50.360Z,95115.38
2023-04-21T01:47:37.320Z,95112.88
2023-04-21T01:50:18.166Z,95106.06
2023-04-21T01:53:12.155Z,95111.16
2023-04-21T01:55:59.239Z,95109.44
2023-04-21T01:58:32.505Z,95102.66
2023-04-21T02:01:19.226Z,95098.47
2023-04-21T02:03:52.522Z,95096.78
2023-04-21T02:06:39.189Z,95104.44
2023-04-21T02:09:19.382Z,95105.31
2023-04-21T02:12:07.255Z,95100.25
2023-04-21T02:14:40.388Z,95106.22
2023-04-21T02:17:27.272Z,95107.91
2023-04-21T02:20:07.248Z,95102.00
2023-04-21T02:22:54.185Z,95107.97
2023-04-21T02:25:28.157Z,95107.16
2023-04-21T02:28:15.225Z,95103.78
2023-04-21T02:30:55.251Z,95103.84
2023-04-21T02:33:52.160Z,95099.63
2023-04-21T02:36:39.243Z,95106.44
2023-04-21T02:39:19.441Z,95106.44
2023-04-21T02:42:13.256Z,95103.09
2023-04-21T02:45:00.210Z,95105.66
2023-04-21T02:47:33.374Z,95105.69
2023-04-21T02:50:20.236Z,95109.09
2023-04-21T02:52:53.314Z,95111.66
2023-04-21T02:55:40.242Z,95110.78
2023-04-21T02:58:13.324Z,95105.72
2023-04-21T03:01:00.353Z,95101.50
2023-04-21T03:03:33.598Z,95109.97
2023-04-21T03:06:21.225Z,95108.31
2023-04-21T03:08:56.348Z,95108.31
2023-04-21T03:11:43.229Z,95104.91
2023-04-21T03:14:16.369Z,95104.94
2023-04-21T03:17:03.223Z,95097.31
2023-04-21T03:19:36.309Z,95106.59
2023-04-21T03:22:23.215Z,95102.38
2023-04-21T03:25:03.219Z,95104.09
2023-04-21T03:27:50.207Z,95107.50
2023-04-21T03:30:30.208Z,95104.94
2023-04-21T03:33:24.212Z,95107.50
2023-04-21T03:36:11.271Z,95105.78
2023-04-21T03:38:44.308Z,95110.84
2023-04-21T03:41:33.516Z,95106.66
2023-04-21T03:44:07.349Z,95103.22
2023-04-21T03:46:54.251Z,95104.06
2023-04-21T03:49:28.377Z,95107.47
2023-04-21T03:52:15.220Z,95105.78
2023-04-21T03:54:48.373Z,95107.50
2023-04-21T03:57:37.284Z,95108.31
2023-04-21T04:00:11.396Z,95115.09
2023-04-21T04:02:58.356Z,95117.63
2023-04-21T04:05:38.475Z,95116.75
2023-04-21T04:08:32.225Z,95125.25
2023-04-21T04:11:21.568Z,95118.47
2023-04-21T04:14:01.371Z,95118.47
2023-04-21T04:16:48.230Z,95123.56
2023-04-21T04:19:21.663Z,95118.47
2023-04-21T04:22:23.276Z,95124.41
2023-04-21T04:25:17.269Z,95126.97
2023-04-21T04:28:04.229Z,95127.78
2023-04-21T04:30:44.226Z,95129.50
2023-04-21T04:33:38.245Z,95122.72
2023-04-21T04:36:27.289Z,95129.47
2023-04-21T04:39:00.332Z,95130.31
2023-04-21T04:41:48.227Z,95132.03
2023-04-21T04:44:30.226Z,95131.16
2023-04-21T04:47:17.292Z,95131.13
2023-04-21T04:49:59.544Z,95136.19
2023-04-21T04:52:54.256Z,95130.25
2023-04-21T04:55:41.270Z,95131.94
2023-04-21T04:58:21.265Z,95134.47
2023-04-21T05:01:36.284Z,95138.66
2023-04-21T05:04:23.905Z,95141.22
2023-04-21T05:06:57.330Z,95132.72
2023-04-21T05:09:44.278Z,95138.59
2023-04-21T05:12:17.343Z,95140.28
2023-04-21T05:15:04.255Z,95132.63
2023-04-21T05:17:37.429Z,95138.53
2023-04-21T05:20:24.255Z,95128.28
2023-04-21T05:22:57.329Z,95134.16
2023-04-21T05:25:51.263Z,95138.38
2023-04-21T05:28:45.305Z,95129.75
2023-04-21T05:31:32.274Z,95127.97
2023-04-21T05:34:12.291Z,95125.31
2023-04-21T05:36:59.280Z,95132.03
2023-04-21T05:39:34.364Z,95129.34
2023-04-21T05:42:21.270Z,95130.09
2023-04-21T05:45:01.289Z,95134.22
2023-04-21T05:47:55.307Z,95125.56
2023-04-21T05:50:49.264Z,95132.19
2023-04-21T05:53:36.263Z,95130.19
2023-04-21T05:56:16.238Z,95132.41
2023-04-21T05:59:10.274Z,95137.28
2023-04-21T06:01:57.285Z,95124.25
2023-04-21T06:04:37.432Z,95123.06
2023-04-21T06:07:25.286Z,95120.19
2023-04-21T06:09:58.487Z,95123.34
2023-04-21T06:12:45.263Z,95131.66
2023-04-21T06:15:25.281Z,95130.53
2023-04-21T06:18:12.316Z,95129.22
2023-04-21T06:20:52.281Z,95124.56
2023-04-21T06:23:39.284Z,95124.09
2023-04-21T06:26:14.394Z,95117.53
2023-04-21T06:29:01.283Z,95122.91
2023-04-21T06:31:41.304Z,95116.25
2023-04-21T06:34:35.261Z,95118.22
2023-04-21T06:37:31.338Z,95116.66
2023-04-21T06:40:25.424Z,95111.00
2023-04-21T06:43:19.290Z,95115.41
2023-04-21T06:46:13.285Z,95113.94
2023-04-21T06:49:07.308Z,95102.97
2023-04-21T06:51:54.284Z,95109.03
2023-04-21T06:54:27.455Z,95107.56
2023-04-21T06:57:14.320Z,95111.97
2023-04-21T06:59:47.395Z,95113.88
2023-04-21T07:02:34.366Z,95104.47
2023-04-21T07:05:14.295Z,95097.53
2023-04-21T07:08:08.336Z,95105.22
2023-04-21T07:10:55.302Z,95109.53
2023-04-21T07:13:35.318Z,95111.19
2023-04-21T07:16:22.362Z,95110.38
2023-04-21T07:19:02.307Z,95107.84
2023-04-21T07:21:56.318Z,95109.50
2023-04-21T07:24:44.294Z,95104.66
2023-04-21T07:27:38.323Z,95113.66
2023-04-21T07:30:32.336Z,95107.50
2023-04-21T07:33:20.309Z,95106.94
2023-04-21T07:35:53.505Z,95105.81
2023-04-21T07:38:40.306Z,95108.00
2023-04-21T07:41:20.378Z,95109.91
2023-04-21T07:44:07.328Z,95105.28
2023-04-21T07:46:47.329Z,95108.63
2023-04-21T07:49:41.330Z,95096.19
2023-04-21T07:52:28.328Z,95107.72
2023-04-21T07:55:01.434Z,95105.63
2023-04-21T07:57:48.315Z,95097.38
2023-04-21T08:00:22.421Z,95100.94
2023-04-21T08:03:09.481Z,95098.63
2023-04-21T08:05:43.566Z,95102.44
2023-04-21T08:08:31.968Z,95097.53
2023-04-21T08:11:05.574Z,95101.78
2023-04-21T08:13:52.365Z,95098.72
2023-04-21T08:16:32.339Z,95088.44
2023-04-21T08:19:26.338Z,95098.75
2023-04-21T08:22:20.347Z,95083.75
2023-04-21T08:25:14.334Z,95096.50
2023-04-21T08:28:08.376Z,95092.78
2023-04-21T08:30:55.356Z,95082.97
2023-04-21T08:33:28.439Z,95089.38
2023-04-21T08:36:26.151Z,95093.72
2023-04-21T08:39:09.356Z,95090.91
2023-04-21T08:41:57.389Z,95083.97
2023-04-21T08:44:30.461Z,95079.78
2023-04-21T08:47:18.378Z,95085.22
2023-04-21T08:49:58.353Z,95088.06
2023-04-21T08:52:45.383Z,95081.41
2023-04-21T08:55:26.357Z,95078.63
2023-04-21T08:58:20.461Z,95083.84
2023-04-21T09:01:14.391Z,95076.38
2023-04-21T09:04:01.436Z,95076.59
2023-04-21T09:06:47.607Z,95074.84
2023-04-21T09:09:34.400Z,95071.53
2023-04-21T09:12:15.391Z,95078.28
2023-04-21T09:15:04.371Z,95078.06
2023-04-21T09:17:38.764Z,95072.44
2023-04-21T09:20:28.385Z,95058.69
2023-04-21T09:23:08.377Z,95067.00
2023-04-21T09:26:02.417Z,95071.69
2023-04-21T09:28:51.382Z,95053.41
2023-04-21T09:31:29.663Z,95057.19
2023-04-21T09:34:31.384Z,95052.25
2023-04-21T09:37:09.474Z,95052.09
2023-04-21T09:40:04.281Z,95062.06
2023-04-21T09:42:40.980Z,95049.56
2023-04-21T09:45:40.342Z,95051.16
2023-04-21T09:48:24.420Z,95056.81
2023-04-21T09:54:29.666Z,95051.78
2023-04-21T09:57:16.390Z,95048.84
2023-04-21T10:00:18.428Z,95044.16
2023-04-21T10:03:11.647Z,95049.03
2023-04-21T10:05:45.530Z,95043.50
2023-04-21T10:08:32.390Z,95035.81
2023-04-21T10:11:07.552Z,95030.53
2023-04-21T10:13:54.412Z,95029.22
2023-04-21T10:16:27.716Z,95035.25
2023-04-21T10:19:34.573Z,95048.66
2023-04-21T10:22:08.259Z,95040.38
2023-04-21T10:24:49.418Z,95029.38
2023-04-21T10:27:51.424Z,95037.00
2023-04-21T10:30:45.460Z,95033.09
2023-04-21T10:33:34.557Z,95034.19
2023-04-21T10:36:08.561Z,95039.13
2023-04-21T10:39:05.411Z,95040.75
2023-04-21T10:41:47.463Z,95030.72
2023-04-21T10:44:42.428Z,95036.75
2023-04-21T10:47:33.459Z,95027.97
2023-04-21T10:50:18.644Z,95028.56
2023-04-21T10:53:25.424Z,95030.31
2023-04-21T10:56:06.490Z,95019.63
2023-04-21T10:58:53.427Z,95015.50
2023-04-21T11:01:26.583Z,95017.50
2023-04-21T11:04:13.723Z,95011.34
2023-04-21T11:06:54.416Z,95012.53
2023-04-21T11:09:42.437Z,95014.25
2023-04-21T11:12:21.544Z,95014.56
2023-04-21T11:15:12.428Z,95015.75
2023-04-21T11:17:52.533Z,95008.66
2023-04-21T11:20:47.443Z,95015.56
2023-04-21T11:23:41.449Z,95013.94
2023-04-21T11:26:50.451Z,95016.44
2023-04-21T11:29:37.446Z,95010.19
2023-04-21T11:32:15.660Z,95022.38
2023-04-21T11:35:02.471Z,95014.31
2023-04-21T11:37:35.563Z,95001.31
2023-04-21T11:40:22.446Z,95012.44
2023-04-21T11:42:55.563Z,95007.16
2023-04-21T11:45:43.448Z,95002.41
2023-04-21T11:48:29.501Z,95012.91
2023-04-21T11:51:31.471Z,94997.25
2023-04-21T11:54:20.461Z,94982.69
2023-04-21T11:56:54.577Z,94986.81
2023-04-21T11:59:41.464Z,94992.84
2023-04-21T12:02:20.645Z,94989.28
2023-04-21T12:05:11.498Z,94981.41
2023-04-21T12:07:52.308Z,94985.09
2023-04-21T12:10:39.481Z,94981.50
2023-04-21T12:13:12.555Z,94985.16
2023-04-21T12:15:59.562Z,94995.31
2023-04-21T12:18:38.591Z,94979.31
2023-04-21T12:21:25.482Z,94982.16
2023-04-21T12:23:58.724Z,94976.75
2023-04-21T12:26:52.466Z,94976.28
2023-04-21T12:29:46.477Z,94966.72
2023-04-21T12:32:33.551Z,94982.03
2023-04-21T12:35:06.593Z,94982.16
2023-04-21T12:37:53.497Z,94982.16
2023-04-21T12:40:27.233Z,94972.25
2023-04-21T12:43:14.480Z,94965.03
2023-04-21T12:45:54.602Z,94970.56
2023-04-21T12:48:41.506Z,94960.41
2023-04-21T12:51:14.704Z,94956.88
2023-04-21T12:54:01.505Z,94953.91
2023-04-21T12:56:41.543Z,94955.63
2023-04-21T12:59:35.489Z,94954.47
2023-04-21T13:02:22.662Z,94950.38
2023-04-21T13:04:56.584Z,94949.78
2023-04-21T13:07:43.512Z,94953.28
2023-04-21T13:10:16.659Z,94942.22
2023-04-21T13:13:03.529Z,94940.44
2023-04-21T13:15:43.521Z,94943.59
2023-04-21T13:18:37.482Z,94947.34
2023-04-21T13:21:24.524Z,94947.75
2023-04-21T13:24:04.500Z,94945.59
2023-04-21T13:26:58.536Z,94947.69
2023-04-21T13:29:53.506Z,94936.66
2023-04-21T13:32:47.549Z,94932.34
2023-04-21T13:35:34.526Z,94934.91
2023-04-21T13:38:07.754Z,94932.22
2023-04-21T13:40:55.530Z,94925.38
2023-04-21T13:43:28.617Z,94922.69
2023-04-21T13:46:15.576Z,94921.63
2023-04-21T13:48:56.512Z,94929.19
2023-04-21T13:51:43.523Z,94930.72
2023-04-21T13:54:16.701Z,94935.16
2023-04-21T13:57:03.562Z,94928.63
2023-04-21T13:59:43.530Z,94927.31
2023-04-21T14:02:37.664Z,94914.94
2023-04-21T14:05:24.696Z,94919.50
2023-04-21T14:08:04.545Z,94930.91
2023-04-21T14:10:58.545Z,94910.66
2023-04-21T14:14:00.829Z,94911.63
2023-04-21T14:16:45.564Z,94901.25
2023-04-21T14:19:39.553Z,94910.59
2023-04-21T14:22:27.530Z,94907.72
2023-04-21T14:25:07.555Z,94912.03
2023-04-21T14:28:01.529Z,94902.53
2023-04-21T14:30:49.542Z,94897.97
2023-04-21T14:33:22.725Z,94901.16
2023-04-21T14:36:09.526Z,94893.38
2023-04-21T14:38:43.240Z,94888.75
2023-04-21T14:41:29.591Z,94908.97
2023-04-21T14:44:03.923Z,94892.88
2023-04-21T14:46:57.373Z,94888.09
2023-04-21T14:49:34.900Z,94896.88
2023-04-21T14:52:21.561Z,94901.50
2023-04-21T14:55:01.573Z,94889.69
2023-04-21T14:57:55.573Z,94882.13
2023-04-21T15:00:43.579Z,94877.16
2023-04-21T15:03:16.744Z,94866.06
2023-04-21T15:06:03.599Z,94869.50
2023-04-21T15:08:43.563Z,94875.31
2023-04-21T15:11:30.576Z,94867.63
2023-04-21T15:14:10.586Z,94872.00
2023-04-21T15:17:04.636Z,94876.47
2023-04-21T15:19:51.618Z,94884.31
2023-04-21T15:22:25.672Z,94881.84
2023-04-21T15:25:12.586Z,94876.75
2023-04-21T15:27:46.069Z,94877.72
2023-04-21T15:30:32.577Z,94876.94
2023-04-21T15:33:05.765Z,94870.13
2023-04-21T15:35:54.576Z,94868.50
2023-04-21T15:38:27.820Z,94864.16
2023-04-21T15:41:15.615Z,94872.88
2023-04-21T15:43:48.745Z,94860.91
2023-04-21T15:46:35.623Z,94873.84
2023-04-21T15:49:15.614Z,94872.22
2023-04-21T15:52:11.680Z,94876.69
2023-04-21T15:54:58.622Z,94880.28
2023-04-21T15:57:31.735Z,94871.94
2023-04-21T16:00:19.648Z,94870.53
2023-04-21T16:02:53.921Z,94874.13
2023-04-21T16:05:40.661Z,94871.66
2023-04-21T16:08:13.734Z,94873.44
2023-04-21T16:11:00.701Z,94866.72
2023-04-21T16:13:41.587Z,94859.94
2023-04-21T16:16:35.664Z,94861.84
2023-04-21T16:19:22.614Z,94864.63
2023-04-21T16:22:02.785Z,94862.16
2023-04-21T16:24:49.627Z,94872.59
2023-04-21T16:27:29.610Z,94863.28
2023-04-21T16:30:16.601Z,94856.59
2023-04-21T16:32:49.717Z,94868.69
2023-04-21T16:35:36.711Z,94861.06
2023-04-21T16:38:17.655Z,94865.41
2023-04-21T16:41:11.649Z,94861.31
2023-04-21T16:44:05.619Z,94853.78
2023-04-21T16:46:52.739Z,94854.91
2023-04-21T16:49:32.780Z,94861.03
2023-04-21T16:52:19.639Z,94865.34
2023-04-21T16:54:52.744Z,94868.84
2023-04-21T16:57:40.702Z,94868.03
2023-04-21T17:00:14.707Z,94866.41
2023-04-21T17:03:01.795Z,94864.88
2023-04-21T17:05:34.737Z,94869.44
2023-04-21T17:08:21.640Z,94862.84
2023-04-21T17:11:01.621Z,94865.66
2023-04-21T17:13:48.634Z,94863.44
2023-04-21T17:16:21.797Z,94860.34
2023-04-21T17:19:08.603Z,94857.28
2023-04-21T17:21:48.649Z,94855.81
2023-04-21T17:24:52.307Z,94863.94
2023-04-21T17:27:49.756Z,94869.53
2023-04-21T17:30:36.640Z,94874.22
2023-04-21T17:36:03.127Z,94872.97
2023-04-21T17:38:36.833Z,94874.06
2023-04-21T17:41:23.640Z,94870.09
2023-04-21T17:43:56.739Z,94869.56
2023-04-21T17:46:43.812Z,94874.09
2023-04-21T17:49:18.240Z,94871.78
2023-04-21T17:52:04.622Z,94872.91
2023-04-21T17:54:37.939Z,94879.09
2023-04-21T17:57:24.645Z,94890.41
2023-04-21T18:00:04.648Z,94880.41
2023-04-21T18:02:51.718Z,94882.34
2023-04-21T18:05:24.766Z,94886.78
2023-04-21T18:08:11.647Z,94888.72
2023-04-21T18:10:44.737Z,94884.72
2023-04-21T18:13:31.658Z,94903.75
2023-04-21T18:16:04.897Z,94897.13
2023-04-21T18:18:53.657Z,94900.66
2023-04-21T18:21:28.228Z,94904.25
2023-04-21T18:24:14.645Z,94899.25
2023-04-21T18:26:47.777Z,94904.59
2023-04-21T18:29:34.692Z,94909.03
2023-04-21T18:32:07.884Z,94911.75
2023-04-21T18:34:54.664Z,94909.44
2023-04-21T18:37:27.782Z,94915.53
2023-04-21T18:40:15.677Z,94916.53
2023-04-21T18:42:55.654Z,94916.66
2023-04-21T18:45:42.688Z,94915.97
2023-04-21T18:48:22.692Z,94922.91
2023-04-21T18:51:09.659Z,94915.31
2023-04-21T18:53:49.688Z,94923.09
2023-04-21T18:56:37.673Z,94918.06
2023-04-21T18:59:17.695Z,94922.44
2023-04-21T19:02:12.754Z,94928.50
2023-04-21T19:04:59.690Z,94929.41
2023-04-21T19:07:39.679Z,94925.28
2023-04-21T19:10:27.666Z,94923.69
2023-04-21T19:13:00.826Z,94926.38
2023-04-21T19:15:47.703Z,94922.19
2023-04-21T19:18:20.881Z,94918.84
2023-04-21T19:21:07.716Z,94919.78
2023-04-21T19:23:40.771Z,94924.94
2023-04-21T19:26:34.692Z,94919.91
2023-04-21T19:29:21.658Z,94921.72
2023-04-21T19:31:54.939Z,94921.84
2023-04-21T19:34:41.684Z,94925.34
2023-04-21T19:37:14.832Z,94921.19
2023-04-21T19:40:01.688Z,94922.94
2023-04-21T19:42:34.793Z,94922.16
2023-04-21T19:45:21.700Z,94917.13
2023-04-21T19:47:54.902Z,94921.44
2023-04-21T19:50:42.711Z,94919.75
2023-04-21T19:53:15.874Z,94916.47
2023-04-21T19:56:02.685Z,94911.41
2023-04-21T19:58:40.634Z,94919.13
2023-04-21T20:01:27.734Z,94920.84
2023-04-21T20:04:01.103Z,94931.06
2023-04-21T20:06:47.697Z,94928.56
2023-04-21T20:09:20.889Z,94929.53
2023-04-21T20:12:07.717Z,94935.50
2023-04-21T20:14:47.708Z,94934.72
2023-04-21T20:17:35.733Z,94935.59
2023-04-21T20:20:09.496Z,94936.50
2023-04-21T20:22:56.728Z,94936.53
2023-04-21T20:25:36.723Z,94939.13
2023-04-21T20:28:30.707Z,94936.63
2023-04-21T20:31:17.727Z,94938.38
2023-04-21T20:33:57.705Z,94943.50
2023-04-21T20:36:44.730Z,94935.88
2023-04-21T20:39:19.056Z,94935.06
2023-04-21T20:42:12.989Z,94936.75
2023-04-21T20:44:48.193Z,94939.34
2023-04-21T20:47:35.719Z,94941.03
2023-04-21T20:50:09.026Z,94936.03
2023-04-21T20:52:56.717Z,94942.81
2023-04-21T20:55:36.743Z,94938.63
2023-04-21T20:58:31.757Z,94947.13
2023-04-21T21:01:19.789Z,94948.00
2023-04-21T21:03:59.887Z,94959.03
2023-04-21T21:06:46.703Z,94948.00
2023-04-21T21:09:26.736Z,94950.59
2023-04-21T21:12:13.735Z,94954.00
2023-04-21T21:14:47.015Z,94953.19
2023-04-21T21:17:33.783Z,94949.00
2023-04-21T21:20:07.215Z,94958.34
2023-04-21T21:22:53.747Z,94951.59
2023-04-21T21:25:26.932Z,94958.38
2023-04-21T21:28:13.763Z,94950.75
2023-04-21T21:30:46.842Z,94954.16
2023-04-21T21:33:33.729Z,94955.03
2023-04-21T21:36:13.743Z,94959.28
2023-04-21T21:39:00.745Z,94957.59
2023-04-21T21:41:40.713Z,94959.28
2023-04-21T21:44:27.731Z,94961.81
2023-04-21T21:47:07.791Z,94961.81
2023-04-21T21:50:02.750Z,94961.84
2023-04-21T21:52:49.742Z,94964.41
2023-04-21T21:55:29.761Z,94966.09
2023-04-21T21:58:16.738Z,94958.47
2023-04-21T22:00:52.014Z,94966.97
2023-04-21T22:03:39.049Z,94965.28
2023-04-21T22:06:16.299Z,94968.66
2023-04-21T22:09:03.749Z,94965.28
2023-04-21T22:11:37.133Z,94966.13
2023-04-21T22:14:24.292Z,94972.88
2023-04-21T22:16:57.878Z,94965.28
2023-04-21T22:19:47.773Z,94964.44
2023-04-21T22:22:20.910Z,94971.22
2023-04-21T22:25:07.769Z,94966.97
2023-04-21T22:27:47.795Z,94966.97
2023-04-21T22:30:34.755Z,94964.44
2023-04-21T22:33:07.948Z,94970.38
2023-04-21T22:35:54.766Z,94964.47
2023-04-21T22:38:34.752Z,94966.16
2023-04-21T22:41:28.757Z,94967.00
2023-04-21T22:44:22.801Z,94962.78
2023-04-21T22:47:16.908Z,94963.59
2023-04-21T22:50:03.773Z,94964.47
2023-04-21T22:52:36.928Z,94962.75
2023-04-21T22:55:23.772Z,94962.75
2023-04-21T22:57:56.917Z,94962.75
2023-04-21T23:00:43.822Z,94961.06
2023-04-21T23:03:17.108Z,94962.72
2023-04-21T23:06:03.790Z,94961.91
2023-04-21T23:08:36.978Z,94957.66
2023-04-21T23:11:23.780Z,94964.41
2023-04-21T23:13:56.912Z,94969.47
2023-04-21T23:16:43.843Z,94961.84
2023-04-21T23:19:16.915Z,94967.75
2023-04-21T23:22:03.787Z,94973.66
2023-04-21T23:24:36.985Z,94964.38
2023-04-21T23:27:30.796Z,94971.13
2023-04-21T23:30:18.785Z,94968.56
2023-04-21T23:32:58.841Z,94968.56
2023-04-21T23:35:45.793Z,94963.50
2023-04-21T23:38:19.138Z,94967.69
2023-04-21T23:41:05.797Z,94960.91
2023-04-21T23:43:45.788Z,94960.91
2023-04-21T23:46:39.875Z,94958.38
2023-04-21T23:49:26.772Z,94954.16
2023-04-21T23:52:06.802Z,94958.38
2023-04-21T23:54:53.786Z,94959.22
2023-04-21T23:57:26.897Z,94956.69
